createdAt,value
2023-05-14T00:00:17.156Z,22.76
2023-05-14T00:00:26.993Z,22.74
2023-05-14T00:00:37.066Z,22.74
2023-05-14T00:00:56.008Z,22.75
2023-05-14T00:01:06.996Z,22.74
2023-05-14T00:01:17.027Z,22.74
2023-05-14T00:01:26.987Z,22.74
2023-05-14T00:01:37.029Z,22.75
2023-05-14T00:01:47.018Z,22.76
2023-05-14T00:01:57.087Z,22.75
2023-05-14T00:02:17.053Z,22.76
2023-05-14T00:02:27.145Z,22.74
2023-05-14T00:02:46.094Z,22.74
2023-05-14T00:02:57.091Z,22.78
2023-05-14T00:03:07.164Z,22.76
2023-05-14T00:03:27.168Z,22.75
2023-05-14T00:03:37.099Z,22.75
2023-05-14T00:03:47.057Z,22.75
2023-05-14T00:03:57.106Z,22.72
2023-05-14T00:04:07.098Z,22.75
2023-05-14T00:04:17.049Z,22.75
2023-05-14T00:04:37.051Z,22.75
2023-05-14T00:04:46.970Z,22.75
2023-05-14T00:05:06.971Z,22.75
2023-05-14T00:05:17.006Z,22.76
2023-05-14T00:05:27.417Z,22.75
2023-05-14T00:05:37.041Z,22.78
2023-05-14T00:05:56.999Z,22.75
2023-05-14T00:06:06.958Z,22.75
2023-05-14T00:06:16.974Z,22.74
2023-05-14T00:06:26.962Z,22.74
2023-05-14T00:06:36.994Z,22.75
2023-05-14T00:06:46.949Z,22.75
2023-05-14T00:07:06.953Z,22.75
2023-05-14T00:07:17.002Z,22.76
2023-05-14T00:07:35.982Z,22.75
2023-05-14T00:07:46.945Z,22.74
2023-05-14T00:07:56.966Z,22.75
2023-05-14T00:08:16.986Z,22.75
2023-05-14T00:08:26.956Z,22.76
2023-05-14T00:08:36.986Z,22.75
2023-05-14T00:08:46.935Z,22.76
2023-05-14T00:08:56.970Z,22.76
2023-05-14T00:09:06.942Z,22.76
2023-05-14T00:09:26.944Z,22.76
2023-05-14T00:09:36.955Z,22.75
2023-05-14T00:09:46.934Z,22.78
2023-05-14T00:10:06.929Z,22.78
2023-05-14T00:10:16.969Z,22.76
2023-05-14T00:10:36.942Z,22.76
2023-05-14T00:10:46.928Z,22.74
2023-05-14T00:10:56.963Z,22.74
2023-05-14T00:11:06.932Z,22.74
2023-05-14T00:11:16.966Z,22.76
2023-05-14T00:11:26.923Z,22.75
2023-05-14T00:11:46.918Z,22.76
2023-05-14T00:11:56.957Z,22.74
2023-05-14T00:12:06.928Z,22.78
2023-05-14T00:12:26.913Z,22.75
2023-05-14T00:12:36.952Z,22.74
2023-05-14T00:12:55.978Z,22.75
2023-05-14T00:13:06.959Z,22.75
2023-05-14T00:13:17.003Z,22.74
2023-05-14T00:13:26.963Z,22.72
2023-05-14T00:13:37.030Z,22.75
2023-05-14T00:13:47.108Z,22.75
2023-05-14T00:13:56.985Z,22.72
2023-05-14T00:14:16.985Z,22.75
2023-05-14T00:14:26.951Z,22.74
2023-05-14T00:14:36.994Z,22.72
2023-05-14T00:14:55.976Z,22.76
2023-05-14T00:15:06.953Z,22.74
2023-05-14T00:15:26.944Z,22.75
2023-05-14T00:15:37.031Z,22.75
2023-05-14T00:15:46.960Z,22.75
2023-05-14T00:15:57.013Z,22.74
2023-05-14T00:16:06.965Z,22.76
2023-05-14T00:16:16.982Z,22.76
2023-05-14T00:16:36.982Z,22.74
2023-05-14T00:16:46.932Z,22.76
2023-05-14T00:16:56.971Z,22.75
2023-05-14T00:17:06.935Z,22.75
2023-05-14T00:17:16.964Z,22.76
2023-05-14T00:17:37.069Z,22.75
2023-05-14T00:17:46.986Z,22.74
2023-05-14T00:18:06.954Z,22.75
2023-05-14T00:18:16.946Z,22.76
2023-05-14T00:18:26.964Z,22.75
2023-05-14T00:18:36.972Z,22.75
2023-05-14T00:18:46.947Z,22.74
2023-05-14T00:18:57.003Z,22.74
2023-05-14T00:19:17.004Z,22.72
2023-05-14T00:19:26.926Z,22.75
2023-05-14T00:19:36.954Z,22.70
2023-05-14T00:19:55.932Z,22.76
2023-05-14T00:20:06.912Z,22.75
2023-05-14T00:20:26.909Z,22.75
2023-05-14T00:20:36.931Z,22.74
2023-05-14T00:20:46.910Z,22.75
2023-05-14T00:20:56.925Z,22.74
2023-05-14T00:21:06.913Z,22.75
2023-05-14T00:21:16.942Z,22.75
2023-05-14T00:21:26.914Z,22.72
2023-05-14T00:21:36.940Z,22.75
2023-05-14T00:21:56.916Z,22.75
2023-05-14T00:22:16.925Z,22.74
2023-05-14T00:22:26.912Z,22.76
2023-05-14T00:22:36.929Z,22.75
2023-05-14T00:22:46.895Z,22.74
2023-05-14T00:22:56.939Z,22.75
2023-05-14T00:23:06.890Z,22.74
2023-05-14T00:23:26.924Z,22.74
2023-05-14T00:23:36.925Z,22.76
2023-05-14T00:23:46.887Z,22.75
2023-05-14T00:23:56.920Z,22.74
2023-05-14T00:24:06.886Z,22.74
2023-05-14T00:24:16.918Z,22.75
2023-05-14T00:24:45.880Z,22.74
2023-05-14T00:24:56.930Z,22.74
2023-05-14T00:25:06.878Z,22.72
2023-05-14T00:25:16.927Z,22.75
2023-05-14T00:25:26.881Z,22.74
2023-05-14T00:25:36.891Z,22.72
2023-05-14T00:25:46.876Z,22.72
2023-05-14T00:26:05.865Z,22.74
2023-05-14T00:26:16.899Z,22.72
2023-05-14T00:26:26.870Z,22.75
2023-05-14T00:26:36.883Z,22.72
2023-05-14T00:26:46.870Z,22.75
2023-05-14T00:27:06.880Z,22.74
2023-05-14T00:27:25.866Z,22.74
2023-05-14T00:27:36.881Z,22.74
2023-05-14T00:27:46.860Z,22.72
2023-05-14T00:27:56.887Z,22.74
2023-05-14T00:28:06.884Z,22.74
2023-05-14T00:28:16.872Z,22.75
2023-05-14T00:28:26.851Z,22.72
2023-05-14T00:28:46.851Z,22.72
2023-05-14T00:28:56.893Z,22.72
2023-05-14T00:29:06.861Z,22.74
2023-05-14T00:29:16.871Z,22.74
2023-05-14T00:29:36.878Z,22.76
2023-05-14T00:29:55.880Z,22.74
2023-05-14T00:30:06.907Z,22.70
2023-05-14T00:30:16.870Z,22.74
2023-05-14T00:30:26.840Z,22.72
2023-05-14T00:30:36.858Z,22.74
2023-05-14T00:30:46.845Z,22.74
2023-05-14T00:30:56.876Z,22.75
2023-05-14T00:31:16.910Z,22.75
2023-05-14T00:31:26.878Z,22.76
2023-05-14T00:31:36.892Z,22.75
2023-05-14T00:31:46.905Z,22.75
2023-05-14T00:32:06.841Z,22.72
2023-05-14T00:32:26.852Z,22.75
2023-05-14T00:32:36.892Z,22.74
2023-05-14T00:32:46.864Z,22.75
2023-05-14T00:32:56.986Z,22.74
2023-05-14T00:33:06.859Z,22.74
2023-05-14T00:33:17.351Z,22.75
2023-05-14T00:33:35.850Z,22.75
2023-05-14T00:33:46.818Z,22.75
2023-05-14T00:33:56.850Z,22.72
2023-05-14T00:34:06.820Z,22.74
2023-05-14T00:34:27.177Z,22.72
2023-05-14T00:34:36.850Z,22.74
2023-05-14T00:34:56.847Z,22.72
2023-05-14T00:35:06.823Z,22.72
2023-05-14T00:35:16.860Z,22.70
2023-05-14T00:35:26.807Z,22.75
2023-05-14T00:35:36.839Z,22.70
2023-05-14T00:35:46.810Z,22.74
2023-05-14T00:36:06.802Z,22.70
2023-05-14T00:36:16.819Z,22.70
2023-05-14T00:36:26.801Z,22.72
2023-05-14T00:36:36.805Z,22.72
2023-05-14T00:36:46.828Z,22.74
2023-05-14T00:37:06.828Z,22.72
2023-05-14T00:37:25.839Z,22.72
2023-05-14T00:37:36.789Z,22.74
2023-05-14T00:37:46.827Z,22.72
2023-05-14T00:37:56.796Z,22.74
2023-05-14T00:38:06.822Z,22.72
2023-05-14T00:38:16.810Z,22.74
2023-05-14T00:38:27.285Z,22.75
2023-05-14T00:38:46.828Z,22.75
2023-05-14T00:38:56.789Z,22.74
2023-05-14T00:39:06.812Z,22.74
2023-05-14T00:39:25.808Z,22.74
2023-05-14T00:39:36.795Z,22.75
2023-05-14T00:39:56.771Z,22.74
2023-05-14T00:40:06.927Z,22.74
2023-05-14T00:40:16.778Z,22.74
2023-05-14T00:40:26.791Z,22.70
2023-05-14T00:40:36.773Z,22.74
2023-05-14T00:40:46.808Z,22.72
2023-05-14T00:41:06.790Z,22.72
2023-05-14T00:41:16.765Z,22.74
2023-05-14T00:41:26.803Z,22.72
2023-05-14T00:41:46.805Z,22.74
2023-05-14T00:41:56.770Z,22.74
2023-05-14T00:42:15.754Z,22.75
2023-05-14T00:42:26.797Z,22.75
2023-05-14T00:42:36.758Z,22.72
2023-05-14T00:42:46.775Z,22.72
2023-05-14T00:42:56.761Z,22.72
2023-05-14T00:43:06.784Z,22.74
2023-05-14T00:43:16.755Z,22.75
2023-05-14T00:43:36.749Z,22.74
2023-05-14T00:43:46.767Z,22.75
2023-05-14T00:43:56.759Z,22.74
2023-05-14T00:44:16.745Z,22.74
2023-05-14T00:44:26.778Z,22.72
2023-05-14T00:44:46.794Z,22.74
2023-05-14T00:44:56.748Z,22.74
2023-05-14T00:45:06.784Z,22.72
2023-05-14T00:45:16.752Z,22.74
2023-05-14T00:45:26.753Z,22.75
2023-05-14T00:45:36.732Z,22.72
2023-05-14T00:45:56.735Z,22.72
2023-05-14T00:46:06.756Z,22.76
2023-05-14T00:46:16.804Z,22.72
2023-05-14T00:46:26.833Z,22.74
2023-05-14T00:46:46.785Z,22.72
2023-05-14T00:47:06.892Z,22.74
2023-05-14T00:47:16.729Z,22.75
2023-05-14T00:47:26.763Z,22.75
2023-05-14T00:47:36.764Z,22.72
2023-05-14T00:47:46.811Z,22.72
2023-05-14T00:47:56.777Z,22.72
2023-05-14T00:48:16.721Z,22.76
2023-05-14T00:48:26.734Z,22.70
2023-05-14T00:48:36.721Z,22.70
2023-05-14T00:48:46.731Z,22.70
2023-05-14T00:48:56.733Z,22.70
2023-05-14T00:49:26.741Z,22.69
2023-05-14T00:49:36.717Z,22.72
2023-05-14T00:49:46.725Z,22.72
2023-05-14T00:49:56.707Z,22.72
2023-05-14T00:50:06.748Z,22.72
2023-05-14T00:50:16.720Z,22.74
2023-05-14T00:50:26.872Z,22.75
2023-05-14T00:50:45.733Z,22.70
2023-05-14T00:50:56.710Z,22.70
2023-05-14T00:51:06.740Z,22.74
2023-05-14T00:51:17.219Z,22.74
2023-05-14T00:51:35.690Z,22.70
2023-05-14T00:51:46.764Z,22.72
2023-05-14T00:52:06.721Z,22.74
2023-05-14T00:52:16.693Z,22.70
2023-05-14T00:52:26.724Z,22.70
2023-05-14T00:52:36.685Z,22.69
2023-05-14T00:52:46.707Z,22.72
2023-05-14T00:52:56.696Z,22.75
2023-05-14T00:53:16.688Z,22.72
2023-05-14T00:53:26.711Z,22.72
2023-05-14T00:53:36.695Z,22.70
2023-05-14T00:53:46.697Z,22.72
2023-05-14T00:54:06.702Z,22.72
2023-05-14T00:54:16.779Z,22.74
2023-05-14T00:54:36.690Z,22.69
2023-05-14T00:55:01.508Z,22.75
2023-05-14T00:55:06.625Z,22.70
2023-05-14T00:55:16.702Z,22.74
2023-05-14T00:55:26.637Z,22.72
2023-05-14T00:55:36.652Z,22.74
2023-05-14T00:55:46.611Z,22.72
2023-05-14T00:56:05.610Z,22.70
2023-05-14T00:56:16.673Z,22.72
2023-05-14T00:56:36.641Z,22.72
2023-05-14T00:56:46.617Z,22.70
2023-05-14T00:56:56.626Z,22.72
2023-05-14T00:57:06.610Z,22.70
2023-05-14T00:57:16.654Z,22.74
2023-05-14T00:57:26.618Z,22.74
2023-05-14T00:57:46.603Z,22.74
2023-05-14T00:57:56.639Z,22.70
2023-05-14T00:58:06.612Z,22.72
2023-05-14T00:58:16.628Z,22.72
2023-05-14T00:58:26.603Z,22.72
2023-05-14T00:58:36.633Z,22.69
2023-05-14T00:58:56.610Z,22.70
2023-05-14T00:59:06.597Z,22.74
2023-05-14T00:59:16.671Z,22.70
2023-05-14T00:59:26.594Z,22.72
2023-05-14T00:59:36.638Z,22.74
2023-05-14T00:59:46.589Z,22.74
2023-05-14T01:00:06.629Z,22.72
2023-05-14T01:00:16.680Z,22.70
2023-05-14T01:00:26.581Z,22.75
2023-05-14T01:00:36.634Z,22.72
2023-05-14T01:00:46.782Z,22.72
2023-05-14T01:00:56.604Z,22.70
2023-05-14T01:01:26.691Z,22.72
2023-05-14T01:01:36.627Z,22.75
2023-05-14T01:01:46.580Z,22.74
2023-05-14T01:01:56.603Z,22.74
2023-05-14T01:02:06.586Z,22.74
2023-05-14T01:02:16.593Z,22.70
2023-05-14T01:02:36.722Z,22.72
2023-05-14T01:02:46.672Z,22.72
2023-05-14T01:02:56.669Z,22.72
2023-05-14T01:03:06.674Z,22.69
2023-05-14T01:03:16.808Z,22.72
2023-05-14T01:03:26.665Z,22.74
2023-05-14T01:03:56.706Z,22.69
2023-05-14T01:04:06.714Z,22.70
2023-05-14T01:04:16.598Z,22.72
2023-05-14T01:04:26.565Z,22.70
2023-05-14T01:04:36.593Z,22.70
2023-05-14T01:04:46.557Z,22.72
2023-05-14T01:04:56.587Z,22.70
2023-05-14T01:05:15.571Z,22.72
2023-05-14T01:05:26.549Z,22.72
2023-05-14T01:05:36.570Z,22.70
2023-05-14T01:05:46.556Z,22.70
2023-05-14T01:05:56.570Z,22.74
2023-05-14T01:06:06.541Z,22.70
2023-05-14T01:06:16.577Z,22.72
2023-05-14T01:06:36.596Z,22.72
2023-05-14T01:06:46.543Z,22.72
2023-05-14T01:06:56.556Z,22.72
2023-05-14T01:07:06.547Z,22.72
2023-05-14T01:07:16.573Z,22.72
2023-05-14T01:07:26.545Z,22.70
2023-05-14T01:07:46.530Z,22.70
2023-05-14T01:07:56.543Z,22.70
2023-05-14T01:08:06.546Z,22.74
2023-05-14T01:08:16.585Z,22.72
2023-05-14T01:08:26.529Z,22.70
2023-05-14T01:08:36.570Z,22.72
2023-05-14T01:08:55.551Z,22.74
2023-05-14T01:09:06.529Z,22.75
2023-05-14T01:09:16.542Z,22.72
2023-05-14T01:09:26.523Z,22.72
2023-05-14T01:09:36.545Z,22.72
2023-05-14T01:10:05.513Z,22.72
2023-05-14T01:10:16.551Z,22.74
2023-05-14T01:10:26.694Z,22.72
2023-05-14T01:10:36.530Z,22.72
2023-05-14T01:10:46.538Z,22.72
2023-05-14T01:10:56.542Z,22.70
2023-05-14T01:11:06.538Z,22.74
2023-05-14T01:11:25.502Z,22.69
2023-05-14T01:11:36.523Z,22.72
2023-05-14T01:11:46.499Z,22.70
2023-05-14T01:11:56.557Z,22.74
2023-05-14T01:12:06.508Z,22.72
2023-05-14T01:12:16.524Z,22.75
2023-05-14T01:12:26.500Z,22.72
2023-05-14T01:12:46.511Z,22.72
2023-05-14T01:12:56.517Z,22.74
2023-05-14T01:13:06.504Z,22.70
2023-05-14T01:13:16.512Z,22.75
2023-05-14T01:13:26.517Z,22.72
2023-05-14T01:13:36.525Z,22.70
2023-05-14T01:13:56.521Z,22.75
2023-05-14T01:14:06.527Z,22.74
2023-05-14T01:14:16.501Z,22.72
2023-05-14T01:14:26.488Z,22.72
2023-05-14T01:14:36.499Z,22.70
2023-05-14T01:14:46.513Z,22.74
2023-05-14T01:15:06.491Z,22.72
2023-05-14T01:15:16.540Z,22.72
2023-05-14T01:15:26.482Z,22.74
2023-05-14T01:15:36.511Z,22.72
2023-05-14T01:15:46.482Z,22.74
2023-05-14T01:15:56.508Z,22.72
2023-05-14T01:16:06.510Z,22.72
2023-05-14T01:16:16.545Z,22.74
2023-05-14T01:16:36.540Z,22.72
2023-05-14T01:16:46.532Z,22.74
2023-05-14T01:16:56.688Z,22.72
2023-05-14T01:17:06.470Z,22.74
2023-05-14T01:17:16.510Z,22.69
2023-05-14T01:17:26.503Z,22.74
2023-05-14T01:17:46.541Z,22.74
2023-05-14T01:17:56.529Z,22.75
2023-05-14T01:18:06.506Z,22.72
2023-05-14T01:18:16.493Z,22.72
2023-05-14T01:18:26.489Z,22.70
2023-05-14T01:18:36.547Z,22.75
2023-05-14T01:18:56.526Z,22.72
2023-05-14T01:19:06.585Z,22.72
2023-05-14T01:19:16.532Z,22.74
2023-05-14T01:19:26.482Z,22.72
2023-05-14T01:19:36.449Z,22.72
2023-05-14T01:19:46.472Z,22.70
2023-05-14T01:20:16.459Z,22.69
2023-05-14T01:20:26.630Z,22.75
2023-05-14T01:20:36.451Z,22.70
2023-05-14T01:20:46.478Z,22.67
2023-05-14T01:20:56.441Z,22.72
2023-05-14T01:21:06.474Z,22.72
2023-05-14T01:21:16.444Z,22.69
2023-05-14T01:21:36.434Z,22.72
2023-05-14T01:21:46.454Z,22.70
2023-05-14T01:21:56.437Z,22.72
2023-05-14T01:22:06.473Z,22.72
2023-05-14T01:22:16.456Z,22.74
2023-05-14T01:22:26.464Z,22.70
2023-05-14T01:22:46.469Z,22.74
2023-05-14T01:22:56.426Z,22.70
2023-05-14T01:23:06.449Z,22.72
2023-05-14T01:23:16.423Z,22.72
2023-05-14T01:23:26.459Z,22.70
2023-05-14T01:23:36.439Z,22.69
2023-05-14T01:23:56.418Z,22.72
2023-05-14T01:24:06.547Z,22.69
2023-05-14T01:24:16.415Z,22.72
2023-05-14T01:24:26.446Z,22.72
2023-05-14T01:24:36.419Z,22.72
2023-05-14T01:24:46.452Z,22.72
2023-05-14T01:25:16.412Z,22.72
2023-05-14T01:25:26.428Z,22.70
2023-05-14T01:25:36.418Z,22.72
2023-05-14T01:25:46.425Z,22.70
2023-05-14T01:25:56.409Z,22.72
2023-05-14T01:26:06.425Z,22.70
2023-05-14T01:26:25.412Z,22.72
2023-05-14T01:26:36.434Z,22.72
2023-05-14T01:26:46.431Z,22.72
2023-05-14T01:26:56.401Z,22.72
2023-05-14T01:27:06.436Z,22.70
2023-05-14T01:27:16.397Z,22.70
2023-05-14T01:27:26.428Z,22.72
2023-05-14T01:27:46.427Z,22.72
2023-05-14T01:27:56.396Z,22.70
2023-05-14T01:28:06.420Z,22.72
2023-05-14T01:28:16.393Z,22.74
2023-05-14T01:28:26.429Z,22.70
2023-05-14T01:28:36.388Z,22.70
2023-05-14T01:28:56.389Z,22.70
2023-05-14T01:29:06.413Z,22.70
2023-05-14T01:29:16.381Z,22.69
2023-05-14T01:29:26.402Z,22.72
2023-05-14T01:29:36.376Z,22.72
2023-05-14T01:29:46.393Z,22.70
2023-05-14T01:30:06.391Z,22.72
2023-05-14T01:30:16.375Z,22.72
2023-05-14T01:30:26.576Z,22.72
2023-05-14T01:30:36.377Z,22.70
2023-05-14T01:30:46.405Z,22.69
2023-05-14T01:31:06.423Z,22.72
2023-05-14T01:31:26.428Z,22.72
2023-05-14T01:31:36.421Z,22.74
2023-05-14T01:31:46.503Z,22.69
2023-05-14T01:31:56.399Z,22.69
2023-05-14T01:32:06.505Z,22.74
2023-05-14T01:32:16.361Z,22.72
2023-05-14T01:32:36.421Z,22.70
2023-05-14T01:32:46.436Z,22.70
2023-05-14T01:32:56.433Z,22.72
2023-05-14T01:33:16.352Z,22.70
2023-05-14T01:33:26.370Z,22.67
2023-05-14T01:33:46.369Z,22.69
2023-05-14T01:33:56.345Z,22.70
2023-05-14T01:34:06.391Z,22.69
2023-05-14T01:34:16.344Z,22.69
2023-05-14T01:34:26.405Z,22.67
2023-05-14T01:34:36.357Z,22.70
2023-05-14T01:34:46.377Z,22.72
2023-05-14T01:35:06.366Z,22.70
2023-05-14T01:35:16.337Z,22.70
2023-05-14T01:35:26.359Z,22.69
2023-05-14T01:35:46.367Z,22.72
2023-05-14T01:35:56.368Z,22.69
2023-05-14T01:36:06.368Z,22.67
2023-05-14T01:36:25.345Z,22.69
2023-05-14T01:36:36.338Z,22.72
2023-05-14T01:36:46.347Z,22.70
2023-05-14T01:36:56.336Z,22.69
2023-05-14T01:37:06.369Z,22.70
2023-05-14T01:37:16.328Z,22.69
2023-05-14T01:37:26.360Z,22.69
2023-05-14T01:37:46.354Z,22.70
2023-05-14T01:37:56.326Z,22.70
2023-05-14T01:38:16.316Z,22.72
2023-05-14T01:38:26.333Z,22.69
2023-05-14T01:38:36.318Z,22.70
2023-05-14T01:38:56.315Z,22.69
2023-05-14T01:39:06.356Z,22.70
2023-05-14T01:39:16.310Z,22.69
2023-05-14T01:39:26.359Z,22.70
2023-05-14T01:39:36.311Z,22.70
2023-05-14T01:39:46.324Z,22.70
2023-05-14T01:39:56.320Z,22.70
2023-05-14T01:40:16.324Z,22.74
2023-05-14T01:40:26.435Z,22.69
2023-05-14T01:40:46.334Z,22.70
2023-05-14T01:40:56.309Z,22.74
2023-05-14T01:41:06.319Z,22.70
2023-05-14T01:41:26.326Z,22.72
2023-05-14T01:41:36.292Z,22.72
2023-05-14T01:41:46.312Z,22.70
2023-05-14T01:41:56.287Z,22.74
2023-05-14T01:42:06.358Z,22.72
2023-05-14T01:42:16.289Z,22.70
2023-05-14T01:42:26.320Z,22.69
2023-05-14T01:42:46.347Z,22.72
2023-05-14T01:43:06.402Z,22.70
2023-05-14T01:43:16.319Z,22.69
2023-05-14T01:43:26.407Z,22.70
2023-05-14T01:43:36.366Z,22.69
2023-05-14T01:43:56.277Z,22.70
2023-05-14T01:44:06.292Z,22.67
2023-05-14T01:44:16.272Z,22.72
2023-05-14T01:44:26.289Z,22.69
2023-05-14T01:44:36.279Z,22.70
2023-05-14T01:44:46.280Z,22.70
2023-05-14T01:45:06.321Z,22.70
2023-05-14T01:45:16.280Z,22.70
2023-05-14T01:45:26.308Z,22.70
2023-05-14T01:45:46.320Z,22.70
2023-05-14T01:45:56.259Z,22.72
2023-05-14T01:46:16.284Z,22.70
2023-05-14T01:46:26.321Z,22.69
2023-05-14T01:46:36.307Z,22.70
2023-05-14T01:46:46.273Z,22.72
2023-05-14T01:46:56.251Z,22.70
2023-05-14T01:47:06.292Z,22.72
2023-05-14T01:47:26.319Z,22.69
2023-05-14T01:47:36.292Z,22.72
2023-05-14T01:47:46.310Z,22.67
2023-05-14T01:48:05.376Z,22.70
2023-05-14T01:48:16.261Z,22.70
2023-05-14T01:48:36.245Z,22.70
2023-05-14T01:48:46.258Z,22.72
2023-05-14T01:48:56.239Z,22.69
2023-05-14T01:49:06.251Z,22.70
2023-05-14T01:49:16.253Z,22.70
2023-05-14T01:49:26.273Z,22.70
2023-05-14T01:49:46.269Z,22.72
2023-05-14T01:49:56.234Z,22.66
2023-05-14T01:50:06.267Z,22.72
2023-05-14T01:50:16.244Z,22.70
2023-05-14T01:50:35.270Z,22.72
2023-05-14T01:50:56.228Z,22.70
2023-05-14T01:51:06.247Z,22.72
2023-05-14T01:51:16.220Z,22.69
2023-05-14T01:51:26.258Z,22.69
2023-05-14T01:51:36.221Z,22.69
2023-05-14T01:51:46.237Z,22.69
2023-05-14T01:52:06.287Z,22.69
2023-05-14T01:52:16.217Z,22.67
2023-05-14T01:52:26.240Z,22.67
2023-05-14T01:52:36.214Z,22.69
2023-05-14T01:52:46.260Z,22.69
2023-05-14T01:53:16.218Z,22.69
2023-05-14T01:53:26.218Z,22.67
2023-05-14T01:53:36.211Z,22.70
2023-05-14T01:53:46.225Z,22.69
2023-05-14T01:53:56.211Z,22.69
2023-05-14T01:54:06.242Z,22.67
2023-05-14T01:54:26.240Z,22.66
2023-05-14T01:54:36.200Z,22.69
2023-05-14T01:54:46.217Z,22.70
2023-05-14T01:54:56.201Z,22.70
2023-05-14T01:55:06.215Z,22.69
2023-05-14T01:55:36.204Z,22.70
2023-05-14T01:55:46.228Z,22.72
2023-05-14T01:55:56.192Z,22.69
2023-05-14T01:56:06.251Z,22.70
2023-05-14T01:56:16.187Z,22.69
2023-05-14T01:56:26.250Z,22.70
2023-05-14T01:56:45.249Z,22.70
2023-05-14T01:56:56.198Z,22.67
2023-05-14T01:57:06.234Z,22.66
2023-05-14T01:57:16.184Z,22.69
2023-05-14T01:57:26.214Z,22.70
2023-05-14T01:57:36.185Z,22.70
2023-05-14T01:57:46.191Z,22.69
2023-05-14T01:58:05.192Z,22.69
2023-05-14T01:58:16.181Z,22.67
2023-05-14T01:58:26.191Z,22.69
2023-05-14T01:58:36.172Z,22.69
2023-05-14T01:58:46.205Z,22.67
2023-05-14T01:58:56.186Z,22.67
2023-05-14T01:59:06.194Z,22.70
2023-05-14T01:59:25.197Z,22.67
2023-05-14T01:59:36.176Z,22.69
2023-05-14T01:59:46.231Z,22.66
2023-05-14T01:59:56.157Z,22.69
2023-05-14T02:00:06.233Z,22.69
2023-05-14T02:00:26.347Z,22.67
2023-05-14T02:00:46.190Z,22.69
2023-05-14T02:00:56.157Z,22.70
2023-05-14T02:01:06.228Z,22.70
2023-05-14T02:01:16.229Z,22.69
2023-05-14T02:01:26.287Z,22.69
2023-05-14T02:01:36.207Z,22.72
2023-05-14T02:01:46.223Z,22.70
2023-05-14T02:02:06.146Z,22.67
2023-05-14T02:02:16.164Z,22.70
2023-05-14T02:02:26.187Z,22.69
2023-05-14T02:02:36.198Z,22.69
2023-05-14T02:02:56.224Z,22.67
2023-05-14T02:03:16.175Z,22.67
2023-05-14T02:03:26.138Z,22.69
2023-05-14T02:03:36.203Z,22.69
2023-05-14T02:03:46.201Z,22.69
2023-05-14T02:03:56.166Z,22.69
2023-05-14T02:04:06.184Z,22.66
2023-05-14T02:04:26.380Z,22.67
2023-05-14T02:04:36.166Z,22.67
2023-05-14T02:04:46.128Z,22.69
2023-05-14T02:04:56.151Z,22.67
2023-05-14T02:05:15.162Z,22.69
2023-05-14T02:05:36.164Z,22.67
2023-05-14T02:05:46.134Z,22.67
2023-05-14T02:05:56.145Z,22.69
2023-05-14T02:06:06.119Z,22.67
2023-05-14T02:06:16.141Z,22.66
2023-05-14T02:06:26.117Z,22.69
2023-05-14T02:06:46.118Z,22.69
2023-05-14T02:06:56.164Z,22.67
2023-05-14T02:07:06.123Z,22.67
2023-05-14T02:07:16.144Z,22.70
2023-05-14T02:07:26.112Z,22.69
2023-05-14T02:07:56.127Z,22.69
2023-05-14T02:08:06.110Z,22.70
2023-05-14T02:08:16.125Z,22.69
2023-05-14T02:08:26.104Z,22.69
2023-05-14T02:08:36.116Z,22.69
2023-05-14T02:08:46.123Z,22.67
2023-05-14T02:09:05.116Z,22.69
2023-05-14T02:09:16.122Z,22.69
2023-05-14T02:09:26.104Z,22.70
2023-05-14T02:09:36.110Z,22.69
2023-05-14T02:09:46.104Z,22.69
2023-05-14T02:09:56.109Z,22.70
2023-05-14T02:10:06.104Z,22.69
2023-05-14T02:10:26.162Z,22.70
2023-05-14T02:10:36.123Z,22.69
2023-05-14T02:10:46.079Z,22.69
2023-05-14T02:10:56.135Z,22.69
2023-05-14T02:11:06.092Z,22.67
2023-05-14T02:11:16.124Z,22.67
2023-05-14T02:11:35.120Z,22.67
2023-05-14T02:11:46.080Z,22.66
2023-05-14T02:11:56.096Z,22.66
2023-05-14T02:12:06.100Z,22.66
2023-05-14T02:12:16.108Z,22.66
2023-05-14T02:12:26.080Z,22.66
2023-05-14T02:12:36.131Z,22.66
2023-05-14T02:12:55.087Z,22.67
2023-05-14T02:13:06.069Z,22.66
2023-05-14T02:13:16.103Z,22.69
2023-05-14T02:13:26.073Z,22.67
2023-05-14T02:13:36.107Z,22.69
2023-05-14T02:13:46.072Z,22.69
2023-05-14T02:13:56.082Z,22.70
2023-05-14T02:14:16.101Z,22.69
2023-05-14T02:14:26.068Z,22.69
2023-05-14T02:14:36.094Z,22.67
2023-05-14T02:14:46.066Z,22.66
2023-05-14T02:14:56.094Z,22.67
2023-05-14T02:15:26.056Z,22.67
2023-05-14T02:15:36.198Z,22.69
2023-05-14T02:15:46.123Z,22.69
2023-05-14T02:15:56.082Z,22.67
2023-05-14T02:16:06.089Z,22.69
2023-05-14T02:16:16.121Z,22.70
2023-05-14T02:16:36.093Z,22.69
2023-05-14T02:16:46.049Z,22.67
2023-05-14T02:16:56.064Z,22.67
2023-05-14T02:17:06.057Z,22.67
2023-05-14T02:17:16.072Z,22.69
2023-05-14T02:17:26.139Z,22.69
2023-05-14T02:17:46.089Z,22.67
2023-05-14T02:17:56.099Z,22.69
2023-05-14T02:18:06.089Z,22.69
2023-05-14T02:18:16.081Z,22.67
2023-05-14T02:18:26.075Z,22.70
2023-05-14T02:18:36.089Z,22.69
2023-05-14T02:18:55.077Z,22.70
2023-05-14T02:19:06.104Z,22.69
2023-05-14T02:19:16.137Z,22.69
2023-05-14T02:19:26.026Z,22.69
2023-05-14T02:19:36.052Z,22.69
2023-05-14T02:19:46.025Z,22.70
2023-05-14T02:19:56.042Z,22.66
2023-05-14T02:20:16.042Z,22.69
2023-05-14T02:20:26.142Z,22.67
2023-05-14T02:20:36.048Z,22.69
2023-05-14T02:20:46.024Z,22.67
2023-05-14T02:20:56.039Z,22.69
2023-05-14T02:21:06.017Z,22.66
2023-05-14T02:21:26.013Z,22.69
2023-05-14T02:21:36.049Z,22.69
2023-05-14T02:21:46.012Z,22.69
2023-05-14T02:21:56.035Z,22.66
2023-05-14T02:22:06.023Z,22.67
2023-05-14T02:22:16.048Z,22.67
2023-05-14T02:22:45.009Z,22.66
2023-05-14T02:22:56.041Z,22.69
2023-05-14T02:23:06.005Z,22.67
2023-05-14T02:23:16.060Z,22.69
2023-05-14T02:23:37.836Z,22.67
2023-05-14T02:23:46.297Z,22.67
2023-05-14T02:23:51.443Z,22.67
2023-05-14T02:24:01.490Z,22.67
2023-05-14T02:24:11.432Z,22.66
2023-05-14T02:24:21.474Z,22.64
2023-05-14T02:24:31.431Z,22.67
2023-05-14T02:24:51.484Z,22.64
2023-05-14T02:25:11.442Z,22.69
2023-05-14T02:25:21.462Z,22.67
2023-05-14T02:25:31.438Z,22.66
2023-05-14T02:25:41.453Z,22.67
2023-05-14T02:26:01.438Z,22.67
2023-05-14T02:26:11.426Z,22.66
2023-05-14T02:26:21.453Z,22.69
2023-05-14T02:26:31.425Z,22.67
2023-05-14T02:26:41.433Z,22.66
2023-05-14T02:26:51.417Z,22.66
2023-05-14T02:27:11.414Z,22.69
2023-05-14T02:27:21.434Z,22.67
2023-05-14T02:27:41.465Z,22.69
2023-05-14T02:27:51.411Z,22.69
2023-05-14T02:28:01.448Z,22.66
2023-05-14T02:28:21.442Z,22.66
2023-05-14T02:28:31.418Z,22.66
2023-05-14T02:28:41.437Z,22.67
2023-05-14T02:28:51.404Z,22.67
2023-05-14T02:29:01.481Z,22.67
2023-05-14T02:29:11.405Z,22.67
2023-05-14T02:29:30.400Z,22.66
2023-05-14T02:29:41.433Z,22.67
2023-05-14T02:29:51.404Z,22.66
2023-05-14T02:30:10.389Z,22.64
2023-05-14T02:30:21.631Z,22.67
2023-05-14T02:30:31.413Z,22.70
2023-05-14T02:30:51.392Z,22.67
2023-05-14T02:31:01.464Z,22.67
2023-05-14T02:31:11.421Z,22.69
2023-05-14T02:31:21.446Z,22.69
2023-05-14T02:31:31.407Z,22.67
2023-05-14T02:31:41.450Z,22.66
2023-05-14T02:32:00.412Z,22.67
2023-05-14T02:32:11.469Z,22.64
2023-05-14T02:32:30.509Z,22.69
2023-05-14T02:32:41.467Z,22.67
2023-05-14T02:32:51.576Z,22.64
2023-05-14T02:33:01.475Z,22.69
2023-05-14T02:33:21.497Z,22.69
2023-05-14T02:33:31.465Z,22.67
2023-05-14T02:33:41.449Z,22.69
2023-05-14T02:33:51.391Z,22.67
2023-05-14T02:34:01.382Z,22.67
2023-05-14T02:34:11.375Z,22.69
2023-05-14T02:34:21.404Z,22.66
2023-05-14T02:34:41.396Z,22.66
2023-05-14T02:35:01.393Z,22.66
2023-05-14T02:35:11.367Z,22.67
2023-05-14T02:35:21.377Z,22.66
2023-05-14T02:35:31.372Z,22.67
2023-05-14T02:35:41.396Z,22.66
2023-05-14T02:35:51.355Z,22.64
2023-05-14T02:36:11.352Z,22.67
2023-05-14T02:36:21.385Z,22.67
2023-05-14T02:36:31.349Z,22.69
2023-05-14T02:36:41.368Z,22.69
2023-05-14T02:36:51.350Z,22.66
2023-05-14T02:37:01.364Z,22.67
2023-05-14T02:37:31.363Z,22.67
2023-05-14T02:37:41.386Z,22.67
2023-05-14T02:37:51.347Z,22.66
2023-05-14T02:38:01.372Z,22.66
2023-05-14T02:38:11.340Z,22.64
2023-05-14T02:38:21.376Z,22.63
2023-05-14T02:38:41.353Z,22.67
2023-05-14T02:38:51.343Z,22.64